Time;durP1;ratioP1;P1;durP2;ratioP2;P2;SDS_P1;SDS_P2;PMS_P1;PMS_P2;Temp;Humidity;BMP_temperature;BMP_pressure;BME280_temperature;BME280_humidity;BME280_pressure;Samples;Min_cycle;Max_cycle;Signal;HPM_P1;HPM_P2
2022/12/22 03:27:00;;;;;;;11.97;5.50;;;;;;;0.35;100.00;100891.84;1797759;80;21027;-70
2022/12/22 03:29:28;;;;;;;10.07;5.40;;;;;;;0.37;100.00;100891.28;1797680;79;21027;-71
2022/12/22 03:31:55;;;;;;;11.00;5.37;;;;;;;0.35;100.00;100882.98;1797470;79;21343;-71
2022/12/22 03:34:23;;;;;;;9.90;5.13;;;;;;;0.34;100.00;100874.15;1775940;80;21007;-70
2022/12/22 03:36:50;;;;;;;9.83;5.70;;;;;;;0.36;100.00;100878.91;1797769;79;21492;-71
2022/12/22 03:39:17;;;;;;;12.47;5.53;;;;;;;0.38;100.00;100873.51;1797820;79;21050;-71
2022/12/22 03:47:14;;;;;;;15.83;6.90;;;;;;;0.45;100.00;100875.36;1797765;80;21109;-71
2022/12/22 03:49:41;;;;;;;13.77;6.30;;;;;;;0.47;100.00;100880.13;1797769;79;20996;-71
2022/12/22 03:52:08;;;;;;;12.80;5.73;;;;;;;0.47;100.00;100883.63;1797535;80;20968;-71
2022/12/22 03:54:35;;;;;;;11.67;5.23;;;;;;;0.50;100.00;100876.81;1797732;79;21520;-72
2022/12/22 03:57:02;;;;;;;12.50;5.57;;;;;;;0.54;100.00;100878.83;1797547;80;21003;-72
2022/12/22 03:59:28;;;;;;;10.43;5.57;;;;;;;0.57;100.00;100872.02;1797866;80;21465;-71
2022/12/22 04:01:55;;;;;;;12.23;5.77;;;;;;;0.63;100.00;100872.13;1797994;80;21069;-71
2022/12/22 04:04:24;;;;;;;12.67;5.43;;;;;;;0.68;100.00;100878.05;1797739;80;20960;-72
2022/12/22 04:06:51;;;;;;;9.70;5.13;;;;;;;0.73;100.00;100873.33;1797625;80;21031;-71
2022/12/22 04:09:18;;;;;;;11.00;5.63;;;;;;;0.78;100.00;100878.38;1797698;80;21437;-72
2022/12/22 04:14:30;;;;;;;9.80;5.40;;;;;;;0.80;100.00;100865.83;1794909;79;21096;-71
2022/12/22 04:16:57;;;;;;;11.83;5.57;;;;;;;0.80;100.00;100865.83;1792404;79;21058;-69
2022/12/22 04:19:24;;;;;;;13.20;5.63;;;;;;;0.79;100.00;100860.14;1792332;80;21027;-71
2022/12/22 04:21:51;;;;;;;10.33;5.27;;;;;;;0.79;100.00;100867.64;1792396;79;21035;-73
2022/12/22 04:24:18;;;;;;;9.23;5.47;;;;;;;0.80;100.00;100872.03;1792405;80;21012;-71
2022/12/22 04:26:44;;;;;;;11.47;5.20;;;;;;;0.81;100.00;100875.55;1792486;79;21019;-71
2022/12/22 04:29:11;;;;;;;9.53;5.10;;;;;;;0.82;100.00;100882.12;1792574;80;21016;-72
2022/12/22 04:31:38;;;;;;;11.63;5.37;;;;;;;0.84;100.00;100882.88;1792456;79;21054;-72
2022/12/22 04:34:05;;;;;;;11.17;5.37;;;;;;;0.86;100.00;100877.48;1792128;80;21051;-71
2022/12/22 04:36:32;;;;;;;10.60;5.60;;;;;;;0.87;100.00;100873.88;1792400;79;21020;-71
2022/12/22 04:38:59;;;;;;;16.77;7.50;;;;;;;0.86;100.00;100876.14;1792350;80;21015;-70
2022/12/22 04:41:26;;;;;;;14.53;6.77;;;;;;;0.86;100.00;100870.81;1792255;79;21016;-71
2022/12/22 04:43:53;;;;;;;11.17;5.77;;;;;;;0.88;100.00;100882.23;1792161;80;21032;-71
2022/12/22 04:46:20;;;;;;;8.67;4.67;;;;;;;0.90;100.00;100876.34;1792402;79;21046;-72
2022/12/22 04:48:48;;;;;;;10.30;5.00;;;;;;;0.92;100.00;100873.99;1792147;79;21019;-71
2022/12/22 04:51:14;;;;;;;7.63;4.40;;;;;;;0.95;100.00;100879.60;1792489;80;21043;-70
2022/12/22 04:53:41;;;;;;;11.47;5.20;;;;;;;0.99;100.00;100885.13;1792415;80;21015;-71
2022/12/22 04:56:08;;;;;;;9.60;5.03;;;;;;;0.99;100.00;100877.62;1792476;80;21445;-70
2022/12/22 04:58:35;;;;;;;11.13;5.20;;;;;;;0.99;100.00;100880.28;1792158;79;21059;-72
2022/12/22 05:01:10;;;;;;;7.23;4.90;;;;;;;1.00;100.00;100883.34;1792332;80;21022;-71
2022/12/22 05:03:37;;;;;;;9.57;4.83;;;;;;;0.99;100.00;100885.61;1792443;80;21509;-71
2022/12/22 05:06:05;;;;;;;9.07;4.87;;;;;;;0.92;100.00;100883.77;1792516;80;21020;-72
2022/12/22 05:08:32;;;;;;;9.73;5.17;;;;;;;0.87;100.00;100881.87;1792273;80;21072;-70
2022/12/22 05:11:01;;;;;;;12.90;5.67;;;;;;;0.83;100.00;100885.63;1792561;79;21016;-72
2022/12/22 05:13:30;;;;;;;12.83;6.03;;;;;;;0.78;100.00;100887.24;1793114;78;21509;-71
2022/12/22 05:16:06;;;;;;;13.50;5.60;;;;;;;0.74;100.00;100883.02;1817252;79;21030;-71
2022/12/22 05:18:33;;;;;;;11.30;5.63;;;;;;;0.68;100.00;100880.23;1817979;79;21050;-73
2022/12/22 05:21:03;;;;;;;15.17;6.50;;;;;;;0.63;100.00;100888.95;1826210;78;21021;-71
2022/12/22 05:23:30;;;;;;;10.80;5.10;;;;;;;0.57;100.00;100887.98;1792173;78;21065;-71
2022/12/22 05:25:57;;;;;;;9.73;5.17;;;;;;;0.55;100.00;100900.52;1826212;78;21061;-71
2022/12/22 05:28:26;;;;;;;13.40;6.60;;;;;;;0.52;100.00;100897.54;1825997;79;21010;-71
2022/12/22 05:30:53;;;;;;;12.77;5.93;;;;;;;0.51;100.00;100908.27;1826298;78;21037;-71
2022/12/22 05:33:20;;;;;;;20.00;9.17;;;;;;;0.48;100.00;100896.00;1826140;78;21476;-72
2022/12/22 05:35:47;;;;;;;17.03;7.23;;;;;;;0.47;100.00;100904.07;1826158;78;21065;-71
2022/12/22 05:38:14;;;;;;;16.30;7.33;;;;;;;0.45;100.00;100905.96;1825921;79;21033;-72
2022/12/22 05:40:41;;;;;;;13.30;6.30;;;;;;;0.42;100.00;100908.78;1826089;78;20990;-72
2022/12/22 05:43:09;;;;;;;12.67;6.47;;;;;;;0.39;100.00;100915.15;1826015;79;20985;-71
2022/12/22 05:45:35;;;;;;;11.87;5.50;;;;;;;0.36;100.00;100916.16;1826060;78;21065;-72
2022/12/22 05:48:02;;;;;;;9.20;4.50;;;;;;;0.33;100.00;100916.80;1825838;79;21503;-71
2022/12/22 05:50:30;;;;;;;12.40;5.13;;;;;;;0.29;100.00;100913.93;1826192;78;20971;-70
2022/12/22 05:52:58;;;;;;;10.20;5.10;;;;;;;0.24;100.00;100919.48;1791948;78;21034;-71
2022/12/22 05:55:25;;;;;;;11.07;5.37;;;;;;;0.20;100.00;100929.06;1826166;78;21073;-68
2022/12/22 05:57:52;;;;;;;9.67;5.20;;;;;;;0.15;100.00;100930.62;1825823;79;20978;-69
2022/12/22 06:00:20;;;;;;;10.43;4.97;;;;;;;0.10;100.00;100933.52;1825551;78;21002;-72
2022/12/22 06:02:47;;;;;;;10.10;4.73;;;;;;;0.11;100.00;100937.06;1825896;78;21546;-71
2022/12/22 06:05:14;;;;;;;10.37;4.90;;;;;;;0.10;100.00;100938.84;1826028;78;21065;-72
2022/12/22 06:07:41;;;;;;;10.33;5.27;;;;;;;0.09;100.00;100941.58;1825924;78;21053;-72
2022/12/22 06:10:09;;;;;;;9.47;4.93;;;;;;;0.09;100.00;100939.80;1825737;79;21069;-72
2022/12/22 06:12:38;;;;;;;9.30;4.77;;;;;;;0.06;100.00;100943.09;1825870;78;21073;-73
2022/12/22 06:15:06;;;;;;;8.73;4.73;;;;;;;0.07;100.00;100939.48;1814637;78;21089;-70
2022/12/22 06:17:35;;;;;;;8.03;4.33;;;;;;;0.06;100.00;100945.75;1795366;79;21035;-69
2022/12/22 06:20:03;;;;;;;15.13;6.60;;;;;;;0.06;100.00;100947.94;1768750;78;21011;-70
2022/12/22 06:22:31;;;;;;;9.87;5.20;;;;;;;0.11;100.00;100954.35;1788045;80;21054;-73
2022/12/22 06:24:59;;;;;;;8.27;4.60;;;;;;;0.14;100.00;100954.16;1797167;80;21039;-71
2022/12/22 06:27:26;;;;;;;9.67;5.07;;;;;;;0.17;100.00;100956.19;1789268;80;21025;-72
2022/12/22 06:29:53;;;;;;;10.87;4.87;;;;;;;0.22;100.00;100952.45;1781540;79;20936;-70
2022/12/22 06:32:20;;;;;;;9.13;4.93;;;;;;;0.27;100.00;100956.57;1779474;81;21019;-72
2022/12/22 06:34:46;;;;;;;10.57;4.80;;;;;;;0.33;100.00;100952.72;1779531;81;21031;-72
2022/12/22 06:37:15;;;;;;;7.33;4.23;;;;;;;0.35;100.00;100951.70;1779587;81;21047;-72
2022/12/22 06:39:41;;;;;;;10.87;5.50;;;;;;;0.40;100.00;100958.57;1763904;81;21450;-71
2022/12/22 06:44:54;;;;;;;12.70;5.23;;;;;;;0.47;100.00;100969.27;1758127;81;21015;-72
2022/12/22 06:47:21;;;;;;;11.67;5.53;;;;;;;0.52;100.00;100961.89;1758571;81;21023;-71
2022/12/22 06:49:48;;;;;;;10.93;5.27;;;;;;;0.56;100.00;100954.12;1759617;81;21035;-72
2022/12/22 06:52:16;;;;;;;13.53;6.43;;;;;;;0.60;100.00;100955.66;1759265;81;21015;-71
2022/12/22 06:54:42;;;;;;;13.20;6.50;;;;;;;0.63;100.00;100955.98;1760218;80;21519;-71
2022/12/22 06:57:09;;;;;;;18.57;7.23;;;;;;;0.68;100.00;100945.45;1758530;81;21062;-73
2022/12/22 06:59:36;;;;;;;15.60;6.87;;;;;;;0.73;100.00;100946.06;1759141;81;21106;-73
2022/12/22 07:02:03;;;;;;;15.03;7.37;;;;;;;0.80;100.00;100939.93;1757580;80;21031;-70
2022/12/22 07:04:31;;;;;;;15.33;6.77;;;;;;;0.84;100.00;100951.27;1757232;80;21090;-71
2022/12/22 07:06:58;;;;;;;16.73;7.80;;;;;;;0.86;100.00;100954.21;1756880;81;21556;-70
2022/12/22 07:09:26;;;;;;;22.10;11.37;;;;;;;0.89;100.00;100942.06;1757945;81;21504;-71
2022/12/22 07:11:53;;;;;;;19.50;9.67;;;;;;;0.94;100.00;100948.48;1760131;79;21043;-71
2022/12/22 07:14:20;;;;;;;16.50;8.63;;;;;;;0.94;100.00;100937.82;1791485;79;21032;-72
2022/12/22 07:16:47;;;;;;;14.97;7.37;;;;;;;0.95;100.00;100944.36;1782793;79;21093;-71
2022/12/22 07:19:14;;;;;;;16.93;8.10;;;;;;;0.97;100.00;100937.63;1812725;79;21006;-72
2022/12/22 07:21:40;;;;;;;17.47;8.37;;;;;;;0.99;100.00;100941.53;1787126;80;21034;-72
2022/12/22 07:24:10;;;;;;;18.80;8.40;;;;;;;1.03;100.00;100938.63;1787485;80;21057;-72
2022/12/22 07:26:38;;;;;;;14.93;7.37;;;;;;;1.07;100.00;100950.80;1754916;80;21591;-71
2022/12/22 07:29:09;;;;;;;19.30;8.43;;;;;;;1.11;100.00;100944.83;1787297;80;21487;-70
2022/12/22 07:31:38;;;;;;;17.00;8.40;;;;;;;1.15;100.00;100943.70;1787459;80;21010;-69
2022/12/22 07:34:05;;;;;;;16.70;7.17;;;;;;;1.22;100.00;100948.20;1816129;77;20931;-72
2022/12/22 07:36:33;;;;;;;18.23;8.63;;;;;;;1.22;100.00;100942.42;1828085;77;21062;-71
2022/12/22 07:39:01;;;;;;;17.10;8.60;;;;;;;1.27;100.00;100942.98;1817073;77;20986;-73
2022/12/22 07:44:15;;;;;;;14.43;7.83;;;;;;;1.39;100.00;100926.77;1821746;78;20998;-70
2022/12/22 07:46:43;;;;;;;15.33;7.70;;;;;;;1.41;100.00;100931.53;1819167;79;21054;-71
2022/12/22 07:51:56;;;;;;;18.67;10.00;;;;;;;1.49;100.00;100932.42;1825638;77;21023;-73
2022/12/22 07:54:23;;;;;;;20.47;8.90;;;;;;;1.59;100.00;100935.39;1844036;77;21499;-71
2022/12/22 07:56:53;;;;;;;17.10;7.77;;;;;;;1.66;100.00;100932.25;1821177;77;21068;-75
2022/12/22 07:59:20;;;;;;;15.30;6.83;;;;;;;1.77;100.00;100932.09;1842206;77;21025;-73
2022/12/22 08:01:47;;;;;;;15.23;7.30;;;;;;;1.86;100.00;100932.41;1826329;78;21006;-74
2022/12/22 08:04:14;;;;;;;16.63;7.67;;;;;;;1.93;100.00;100932.02;1823870;78;20978;-72
2022/12/22 08:06:41;;;;;;;13.30;6.70;;;;;;;1.98;100.00;100920.59;1826289;78;21008;-73
2022/12/22 08:09:09;;;;;;;16.20;7.93;;;;;;;2.01;100.00;100927.92;1826472;78;21000;-73
2022/12/22 08:11:36;;;;;;;11.33;6.20;;;;;;;2.03;100.00;100927.36;1793570;78;21071;-72
2022/12/22 08:14:04;;;;;;;12.40;6.00;;;;;;;2.09;100.00;100922.14;1819052;78;21043;-73
2022/12/22 08:16:32;;;;;;;15.33;7.00;;;;;;;2.14;100.00;100909.83;1812852;78;21071;-73
2022/12/22 08:18:59;;;;;;;15.50;7.77;;;;;;;2.19;100.00;100913.07;1826821;77;20968;-72
2022/12/22 08:21:27;;;;;;;18.57;8.80;;;;;;;2.24;100.00;100910.98;1827945;77;21049;-73
2022/12/22 08:23:57;;;;;;;13.87;6.83;;;;;;;2.29;100.00;100912.88;1824205;78;20957;-72
2022/12/22 08:26:33;;;;;;;14.40;6.20;;;;;;;2.37;100.00;100912.39;1820512;77;20993;-73
2022/12/22 08:29:17;;;;;;;13.23;6.70;;;;;;;2.41;100.00;100915.27;1823825;77;21231;-71
2022/12/22 08:31:44;;;;;;;18.17;9.17;;;;;;;2.47;100.00;100915.70;1822125;77;21021;-71
2022/12/22 08:34:13;;;;;;;16.67;7.73;;;;;;;2.56;100.00;100914.27;1825804;79;21006;-68
2022/12/22 08:36:46;;;;;;;17.57;7.67;;;;;;;2.62;100.00;100911.67;1825977;78;20998;-70
2022/12/22 08:39:13;;;;;;;25.03;12.60;;;;;;;2.68;100.00;100909.96;1825411;78;21006;-70
2022/12/22 08:41:50;;;;;;;29.17;16.13;;;;;;;2.73;100.00;100895.84;1825931;78;21514;-71
2022/12/22 08:44:26;;;;;;;18.57;9.30;;;;;;;2.75;100.00;100889.06;1794335;78;21006;-72
2022/12/22 08:46:55;;;;;;;19.30;8.33;;;;;;;2.79;100.00;100883.89;1812281;78;21017;-72
2022/12/22 08:49:23;;;;;;;17.93;7.50;;;;;;;2.81;100.00;100877.48;1807384;78;21012;-75
2022/12/22 08:51:56;;;;;;;19.57;8.70;;;;;;;2.89;100.00;100868.13;1826248;78;21132;-74
2022/12/22 08:54:23;;;;;;;21.23;9.10;;;;;;;2.99;100.00;100871.42;1825950;78;21534;-73
2022/12/22 08:56:50;;;;;;;18.30;8.33;;;;;;;3.09;100.00;100861.45;1825658;78;20973;-72
2022/12/22 08:59:16;;;;;;;20.83;9.30;;;;;;;3.21;100.00;100864.64;1837186;77;21022;-70
2022/12/22 09:01:46;;;;;;;21.97;9.33;;;;;;;3.32;100.00;100851.39;1825578;77;21059;-73
2022/12/22 09:04:14;;;;;;;16.30;6.70;;;;;;;3.38;100.00;100848.31;1792468;80;21012;-72
2022/12/22 09:06:42;;;;;;;17.33;7.70;;;;;;;3.46;100.00;100842.92;1792142;80;20980;-72
2022/12/22 09:09:19;;;;;;;22.43;10.80;;;;;;;3.49;100.00;100836.00;1813435;78;21614;-72
2022/12/22 09:11:49;;;;;;;23.17;9.40;;;;;;;3.53;100.00;100820.14;1820945;77;20992;-72
2022/12/22 09:14:18;;;;;;;19.13;8.50;;;;;;;3.59;100.00;100813.02;1792056;80;21083;-73
2022/12/22 09:16:46;;;;;;;21.33;9.10;;;;;;;3.64;100.00;100798.84;1798180;78;21025;-72
2022/12/22 09:19:14;;;;;;;14.43;6.87;;;;;;;3.70;100.00;100789.52;1814508;78;21011;-71
2022/12/22 09:21:52;;;;;;;13.20;6.23;;;;;;;3.72;100.00;100775.55;1814618;79;21053;-71
2022/12/22 09:24:20;;;;;;;14.20;6.33;;;;;;;3.70;100.00;100759.64;1815029;79;21014;-73
2022/12/22 09:26:47;;;;;;;12.60;5.97;;;;;;;3.62;100.00;100736.58;1815316;79;20974;-74
2022/12/22 09:29:16;;;;;;;13.17;6.27;;;;;;;3.55;100.00;100722.78;1815323;79;21041;-73
2022/12/22 09:31:44;;;;;;;11.83;5.90;;;;;;;3.48;100.00;100709.48;1813545;79;21117;-72
2022/12/22 09:34:11;;;;;;;12.37;6.43;;;;;;;3.46;100.00;100686.50;1813709;78;21039;-73
2022/12/22 09:36:40;;;;;;;12.67;5.70;;;;;;;3.44;100.00;100678.59;1814760;79;21063;-73
2022/12/22 09:39:07;;;;;;;11.03;6.03;;;;;;;3.45;100.00;100678.94;1814469;79;21537;-73
2022/12/22 09:41:45;;;;;;;14.33;6.47;;;;;;;3.38;100.00;100659.84;1815650;78;21061;-73
2022/12/22 09:44:27;;;;;;;12.37;5.63;;;;;;;3.35;100.00;100649.36;1814752;79;21686;-72
2022/12/22 09:46:57;;;;;;;13.67;6.37;;;;;;;3.35;100.00;100639.16;1790342;79;21051;-72
2022/12/22 09:49:24;;;;;;;19.63;7.20;;;;;;;3.31;100.00;100627.83;1813434;79;21024;-73
2022/12/22 09:52:00;;;;;;;17.57;8.53;;;;;;;3.32;100.00;100617.48;1802407;78;21008;-71
2022/12/22 09:54:27;;;;;;;14.23;7.20;;;;;;;3.36;100.00;100618.12;1837641;78;21030;-73
2022/12/22 09:56:56;;;;;;;14.70;7.57;;;;;;;3.35;100.00;100606.58;1823709;77;20998;-75
2022/12/22 09:59:26;;;;;;;12.77;6.60;;;;;;;3.31;100.00;100617.59;1847731;78;21578;-73
2022/12/22 10:02:16;;;;;;;12.37;6.23;;;;;;;3.27;100.00;100634.34;1848609;78;21480;-73
2022/12/22 10:05:08;;;;;;;10.70;5.63;;;;;;;3.25;100.00;100633.59;1827757;77;21758;-73
2022/12/22 10:07:41;;;;;;;14.80;6.20;;;;;;;3.26;100.00;100631.77;1810829;79;21051;-73
2022/12/22 10:10:14;;;;;;;;;;;;;;;3.27;100.00;100625.47;1812324;78;21510;-70
2022/12/22 10:12:41;;;;;;;14.95;6.20;;;;;;;3.27;100.00;100628.98;1811170;77;20460;-71
2022/12/22 10:15:10;;;;;;;15.30;6.50;;;;;;;3.27;100.00;100620.97;1808234;78;21033;-72
2022/12/22 10:17:37;;;;;;;13.87;6.17;;;;;;;3.28;100.00;100624.52;1816536;77;21543;-72
2022/12/22 10:20:24;;;;;;;9.37;5.23;;;;;;;3.33;100.00;100620.55;1818059;78;21013;-72
2022/12/22 10:23:01;;;;;;;13.23;6.20;;;;;;;3.35;100.00;100620.44;1831371;78;21030;-72
2022/12/22 10:25:39;;;;;;;12.60;6.20;;;;;;;3.32;100.00;100616.16;1822964;78;20953;-68
2022/12/22 10:28:15;;;;;;;12.80;5.83;;;;;;;3.35;100.00;100613.76;1817310;78;21032;-71
2022/12/22 10:30:42;;;;;;;9.27;4.67;;;;;;;3.36;100.00;100603.42;1792640;78;21441;-73
2022/12/22 10:33:14;;;;;;;11.17;5.53;;;;;;;3.38;100.00;100602.82;1820342;78;21018;-71
2022/12/22 10:35:51;;;;;;;8.33;4.80;;;;;;;3.42;100.00;100598.98;1815113;78;20984;-71
2022/12/22 10:38:32;;;;;;;13.93;6.13;;;;;;;3.47;100.00;100607.98;1815482;79;21067;-73
2022/12/22 10:41:20;;;;;;;27.53;13.63;;;;;;;3.51;100.00;100604.14;1814642;79;21059;-73
2022/12/22 10:43:53;;;;;;;22.93;11.00;;;;;;;3.54;100.00;100602.56;1823468;78;21444;-73
2022/12/22 10:46:31;;;;;;;45.63;22.60;;;;;;;3.60;100.00;100615.50;1831188;78;20973;-75
2022/12/22 10:49:11;;;;;;;27.37;14.10;;;;;;;3.63;100.00;100613.06;1816500;78;21016;-74
2022/12/22 10:51:39;;;;;;;23.70;10.73;;;;;;;3.62;100.00;100610.89;1814736;78;21056;-71
2022/12/22 10:54:07;;;;;;;31.20;13.00;;;;;;;3.64;100.00;100603.59;1814507;78;21024;-72
2022/12/22 10:56:34;;;;;;;30.83;14.27;;;;;;;3.62;100.00;100608.21;1818188;78;20986;-72
2022/12/22 10:59:06;;;;;;;12.60;5.73;;;;;;;3.61;100.00;100616.73;1826044;78;21457;-72
2022/12/22 11:01:35;;;;;;;18.73;8.45;;;;;;;3.57;100.00;100621.06;1813245;78;21008;-72
2022/12/22 11:04:24;;;;;;;16.10;7.63;;;;;;;3.58;100.00;100618.28;1815139;78;21020;-74
2022/12/22 11:06:53;;;;;;;14.50;6.83;;;;;;;3.61;100.00;100621.20;1802240;77;21015;-75
2022/12/22 11:09:20;;;;;;;10.80;5.90;;;;;;;3.63;100.00;100615.74;1824571;78;21424;-76
2022/12/22 11:11:57;;;;;;;9.33;4.97;;;;;;;3.64;100.00;100618.80;1827964;78;20995;-72
2022/12/22 11:14:49;;;;;;;8.80;4.30;;;;;;;3.61;100.00;100611.38;1848750;78;21081;-72
2022/12/22 11:17:34;;;;;;;8.77;4.40;;;;;;;3.61;100.00;100614.05;1835100;78;21003;-70
2022/12/22 11:20:24;;;;;;;10.50;4.70;;;;;;;3.63;100.00;100606.38;1813555;79;21087;-73
2022/12/22 11:23:20;;;;;;;10.63;4.47;;;;;;;3.69;100.00;100604.61;1809318;78;21476;-71
2022/12/22 11:26:20;;;;;;;12.10;5.70;;;;;;;3.73;100.00;100607.42;1820822;79;21073;-69
2022/12/22 11:29:07;;;;;;;8.90;4.90;;;;;;;3.75;100.00;100602.81;1819811;79;21045;-67
2022/12/22 11:32:00;;;;;;;9.63;4.37;;;;;;;3.73;100.00;100596.23;1798428;78;21084;-71
2022/12/22 11:34:41;;;;;;;7.30;4.57;;;;;;;3.73;100.00;100600.73;1804791;78;21464;-71
2022/12/22 11:37:40;;;;;;;7.33;4.27;;;;;;;3.73;100.00;100590.88;1814128;78;21562;-71
2022/12/22 11:40:22;;;;;;;11.10;5.03;;;;;;;3.75;100.00;100594.78;1788610;80;20974;-70
2022/12/22 11:43:00;;;;;;;10.10;4.40;;;;;;;3.77;100.00;100589.70;1787825;80;20995;-70
2022/12/22 11:45:57;;;;;;;8.97;4.53;;;;;;;3.78;100.00;100584.70;1788256;80;21034;-71
2022/12/22 11:48:49;;;;;;;8.03;4.33;;;;;;;3.79;100.00;100586.42;1795499;78;21488;-71
2022/12/22 11:51:42;;;;;;;8.07;5.00;;;;;;;3.80;100.00;100583.26;1809086;78;21029;-75
2022/12/22 11:54:38;;;;;;;10.00;5.03;;;;;;;3.80;100.00;100583.26;1782139;80;21022;-70
2022/12/22 11:57:29;;;;;;;11.37;5.33;;;;;;;3.80;100.00;100580.09;1788426;80;21025;-71
2022/12/22 12:00:10;;;;;;;12.00;5.20;;;;;;;3.82;100.00;100576.46;1790322;78;21057;-71
2022/12/22 12:03:07;;;;;;;11.40;4.80;;;;;;;3.82;100.00;100569.77;1831849;78;20933;-71
2022/12/22 12:06:00;;;;;;;;;;;;;;;3.81;100.00;100572.94;1827361;78;21501;-71
2022/12/22 12:09:09;;;;;;;17.07;7.58;;;;;;;3.77;100.00;100579.47;1800160;77;20127;-73
2022/12/22 12:11:50;;;;;;;12.57;6.00;;;;;;;3.76;100.00;100579.96;1805756;78;21030;-71
2022/12/22 12:14:28;;;;;;;15.10;7.33;;;;;;;3.75;100.00;100570.70;1816748;77;20952;-72
2022/12/22 12:17:01;;;;;;;12.40;5.70;;;;;;;3.73;100.00;100569.97;1817556;77;21087;-71
2022/12/22 12:19:51;;;;;;;19.87;9.05;;;;;;;3.73;100.00;100569.97;1820149;77;20967;-68
2022/12/22 12:22:33;;;;;;;19.47;9.33;;;;;;;3.72;100.00;100567.80;1823651;77;21034;-70
2022/12/22 12:25:10;;;;;;;19.03;9.30;;;;;;;3.73;100.00;100573.49;1825678;77;21459;-71
2022/12/22 12:27:53;;;;;;;12.93;7.03;;;;;;;3.77;100.00;100572.31;1816835;77;21541;-71
2022/12/22 12:30:20;;;;;;;20.67;9.97;;;;;;;3.76;100.00;100585.31;1830477;77;20964;-72
2022/12/22 12:33:10;;;;;;;18.13;7.70;;;;;;;3.76;100.00;100581.30;1834188;77;21027;-71
2022/12/22 12:36:04;;;;;;;19.77;8.27;;;;;;;3.76;100.00;100581.30;1824443;77;20972;-70
2022/12/22 12:38:37;;;;;;;;;;;;;;;3.77;100.00;100584.81;1832709;77;21035;-71
2022/12/22 12:41:28;;;;;;;22.52;10.45;;;;;;;3.77;100.00;100588.83;1813896;77;20119;-69
2022/12/22 12:43:54;;;;;;;25.57;11.40;;;;;;;3.76;100.00;100586.65;1827626;77;21509;-70
2022/12/22 12:46:53;;;;;;;17.47;7.30;;;;;;;3.76;100.00;100594.67;1812859;77;20956;-71
2022/12/22 12:49:58;;;;;;;20.57;9.40;;;;;;;3.78;100.00;100595.41;1840006;77;20967;-71
2022/12/22 12:52:47;;;;;;;22.90;9.93;;;;;;;3.75;100.00;100592.98;1827816;77;20982;-70
2022/12/22 12:55:31;;;;;;;25.13;9.90;;;;;;;3.74;100.00;100595.77;1783071;78;21457;-69
2022/12/22 12:57:59;;;;;;;18.73;9.30;;;;;;;3.73;100.00;100590.03;1809695;77;20973;-70
2022/12/22 13:00:37;;;;;;;17.00;7.73;;;;;;;3.73;100.00;100596.23;1820443;78;20972;-70
2022/12/22 13:03:13;;;;;;;18.90;8.37;;;;;;;3.70;100.00;100591.12;1830477;77;20984;-69
2022/12/22 13:05:59;;;;;;;21.10;8.93;;;;;;;3.72;100.00;100589.65;1822705;77;21089;-69
2022/12/22 13:08:34;;;;;;;12.53;5.90;;;;;;;3.71;100.00;100590.14;1827968;77;20965;-69
2022/12/22 13:11:16;;;;;;;13.87;6.20;;;;;;;3.71;100.00;100598.66;1827441;78;21057;-69
2022/12/22 13:13:45;;;;;;;12.13;6.20;;;;;;;3.71;100.00;100598.66;1832255;78;21092;-70
2022/12/22 13:16:17;;;;;;;14.00;7.63;;;;;;;3.67;100.00;100600.70;1831877;78;21092;-71
2022/12/22 13:18:45;;;;;;;15.67;6.50;;;;;;;3.63;100.00;100601.91;1794127;80;21026;-71
2022/12/22 13:21:25;;;;;;;13.20;6.67;;;;;;;3.63;100.00;100606.38;1761412;80;21258;-73
2022/12/22 13:24:06;;;;;;;11.43;6.13;;;;;;;3.62;100.00;100609.55;1793741;80;21041;-71
2022/12/22 13:26:38;;;;;;;14.43;6.07;;;;;;;3.63;100.00;100609.05;1793186;80;21500;-70
2022/12/22 13:29:24;;;;;;;11.43;5.70;;;;;;;3.62;100.00;100612.22;1793803;80;21038;-71
2022/12/22 13:32:15;;;;;;;14.53;6.03;;;;;;;3.59;100.00;100613.31;1793256;80;21053;-70
2022/12/22 13:35:01;;;;;;;16.17;6.57;;;;;;;3.57;100.00;100613.88;1792140;80;21061;-71
2022/12/22 13:37:28;;;;;;;10.57;5.50;;;;;;;3.56;100.00;100615.33;1792353;80;21092;-70
2022/12/22 13:40:20;;;;;;;14.13;5.70;;;;;;;3.54;100.00;100615.47;1793139;78;21029;-70
2022/12/22 13:42:55;;;;;;;10.40;5.43;;;;;;;3.54;100.00;100622.61;1793116;80;21089;-71
2022/12/22 13:45:30;;;;;;;14.23;6.10;;;;;;;3.51;100.00;100618.84;1793635;80;21029;-71
2022/12/22 13:47:57;;;;;;;17.00;7.07;;;;;;;3.49;100.00;100617.63;1780861;80;21514;-69
2022/12/22 13:50:35;;;;;;;10.97;5.83;;;;;;;3.48;100.00;100623.92;1761293;80;20997;-72
2022/12/22 13:53:02;;;;;;;13.67;7.00;;;;;;;3.45;100.00;100620.61;1815815;77;21524;-71
2022/12/22 13:55:30;;;;;;;17.03;6.50;;;;;;;3.44;100.00;100616.25;1826365;77;20936;-71
2022/12/22 13:58:09;;;;;;;14.60;6.83;;;;;;;3.39;100.00;100618.75;1825983;77;21484;-71
2022/12/22 14:00:37;;;;;;;11.03;5.50;;;;;;;3.38;100.00;100617.06;1830559;77;20994;-70
2022/12/22 14:03:14;;;;;;;14.33;6.17;;;;;;;3.35;100.00;100619.10;1805475;77;21016;-69
2022/12/22 14:05:41;;;;;;;13.70;6.73;;;;;;;3.34;100.00;100616.05;1845980;77;20967;-70
2022/12/22 14:08:12;;;;;;;14.27;6.97;;;;;;;3.34;100.00;100622.23;1842853;77;20964;-72
2022/12/22 14:10:46;;;;;;;11.70;5.30;;;;;;;3.33;100.00;100619.67;1822881;77;21487;-71
2022/12/22 14:13:17;;;;;;;12.30;6.20;;;;;;;3.33;100.00;100614.32;1811587;77;20996;-70
2022/12/22 14:15:48;;;;;;;9.43;5.17;;;;;;;3.31;100.00;100609.12;1734713;80;21091;-71
2022/12/22 14:18:22;;;;;;;11.73;5.40;;;;;;;3.29;100.00;100622.20;1802762;79;21040;-70
2022/12/22 14:20:52;;;;;;;12.63;5.43;;;;;;;3.28;100.00;100616.50;1834575;77;21467;-71
2022/12/22 14:23:26;;;;;;;10.23;5.80;;;;;;;3.28;100.00;100616.50;1825653;77;21497;-67
2022/12/22 14:25:53;;;;;;;13.63;5.70;;;;;;;3.27;100.00;100618.79;1826451;77;21442;-70
2022/12/22 14:28:41;;;;;;;9.93;5.70;;;;;;;3.26;100.00;100622.41;1832414;77;20964;-75
2022/12/22 14:31:08;;;;;;;11.97;5.57;;;;;;;3.26;100.00;100617.94;1824437;77;21001;-73
2022/12/22 14:33:36;;;;;;;10.83;6.00;;;;;;;3.26;100.00;100611.27;1771932;77;21018;-73
2022/12/22 14:36:22;;;;;;;12.73;5.93;;;;;;;3.27;100.00;100616.12;1791390;77;20943;-72
2022/12/22 14:38:57;;;;;;;10.07;5.57;;;;;;;3.27;100.00;100614.78;1831010;77;20943;-70
2022/12/22 14:41:40;;;;;;;15.08;5.67;;;;;;;3.28;100.00;100612.49;1828305;77;21450;-70
2022/12/22 14:44:25;;;;;;;13.48;5.75;;;;;;;3.25;100.00;100600.19;1830287;77;20988;-73
2022/12/22 14:47:20;;;;;;;15.33;6.10;;;;;;;3.24;100.00;100607.85;1828682;77;20964;-72
2022/12/22 14:50:23;;;;;;;13.10;6.10;;;;;;;3.23;100.00;100609.64;1827289;77;20999;-72
2022/12/22 14:52:57;;;;;;;10.17;5.43;;;;;;;3.23;100.00;100612.81;1828583;77;20943;-72
2022/12/22 14:55:37;;;;;;;9.90;5.20;;;;;;;3.24;100.00;100609.19;1828649;77;21442;-72
2022/12/22 14:58:12;;;;;;;12.47;6.47;;;;;;;3.23;100.00;100608.31;1830277;77;21509;-73
2022/12/22 15:00:44;;;;;;;15.33;7.17;;;;;;;3.23;100.00;100606.97;1831922;77;20994;-72
2022/12/22 15:03:33;;;;;;;12.73;6.03;;;;;;;3.23;100.00;100600.78;1824336;77;21076;-75
2022/12/22 15:06:30;;;;;;;16.00;7.60;;;;;;;3.25;100.00;100606.87;1857416;77;21030;-73
2022/12/22 15:09:24;;;;;;;13.37;6.80;;;;;;;3.25;100.00;100605.53;1823851;77;21097;-72
2022/12/22 15:12:03;;;;;;;14.93;6.43;;;;;;;3.26;100.00;100597.02;1857797;77;21622;-73
2022/12/22 15:14:33;;;;;;;17.73;6.80;;;;;;;3.27;100.00;100594.24;1857709;77;21092;-72
2022/12/22 15:17:00;;;;;;;14.70;6.87;;;;;;;3.25;100.00;100590.83;1857595;77;21099;-73
2022/12/22 15:19:33;;;;;;;15.97;6.93;;;;;;;3.28;100.00;100592.45;1857868;77;21022;-73
2022/12/22 15:22:01;;;;;;;;;;;;;;;3.30;100.00;100598.53;1861304;77;21002;-71
2022/12/22 15:24:29;;;;;;;15.23;5.47;;;;;;;3.31;100.00;100598.88;1858574;77;20119;-72
2022/12/22 15:26:56;;;;;;;10.37;4.80;;;;;;;3.32;100.00;100597.93;1858647;77;21206;-72
2022/12/22 15:29:23;;;;;;;11.87;6.17;;;;;;;3.33;100.00;100593.81;1859198;77;21006;-72